Terminal Aerodrome Forecast
Issued by NWS

Home | Current Version | Previous Version | Text Only | Print | Product List | Glossary On
Versions: 1 2 3 4 5 6 7 8 9 10 11 12 13 14 15 16 17 18 19 20 21
000
FTUS43 KLSX 050936 AAA
TAFCPS
TAF AMD
KCPS 050936Z 0510/0606 17003KT 3SM BR OVC015
     FM051500 15006KT P6SM BKN250
     FM052300 11006KT P6SM BKN150=

USA.gov is the U.S. government's official web portal to all federal, state and local government web resources and services.